createdAt,value
2018-03-16T00:00:46.980Z,68.10
2018-03-16T00:03:13.221Z,68.10
2018-03-16T00:05:39.465Z,68.10
2018-03-16T00:08:05.744Z,68.00
2018-03-16T00:10:32.035Z,68.10
2018-03-16T00:12:58.247Z,68.10
2018-03-16T00:15:24.464Z,68.00
2018-03-16T00:17:50.681Z,68.30
2018-03-16T00:20:16.868Z,68.20
2018-03-16T00:22:43.030Z,68.30
2018-03-16T00:25:09.310Z,68.40
2018-03-16T00:27:35.588Z,68.50
2018-03-16T00:30:01.773Z,68.70
2018-03-16T00:32:28.015Z,68.70
2018-03-16T00:34:54.949Z,68.60
2018-03-16T00:37:21.151Z,68.60
2018-03-16T00:39:47.414Z,68.70
2018-03-16T00:42:14.328Z,68.90
2018-03-16T00:44:40.551Z,68.70
2018-03-16T00:47:06.764Z,68.80
2018-03-16T00:49:32.955Z,69.00
2018-03-16T00:52:00.026Z,69.20
2018-03-16T00:54:26.261Z,69.20
2018-03-16T00:56:52.466Z,69.40
2018-03-16T00:59:18.713Z,69.40
2018-03-16T01:01:44.917Z,69.40
2018-03-16T01:04:11.115Z,69.40
2018-03-16T01:06:37.328Z,69.30
2018-03-16T01:09:03.573Z,69.30
2018-03-16T01:11:29.776Z,69.20
2018-03-16T01:13:56.013Z,70.00
2018-03-16T01:16:22.214Z,69.40
2018-03-16T01:18:48.430Z,69.50
2018-03-16T01:21:14.646Z,69.60
2018-03-16T01:23:40.829Z,69.60
2018-03-16T01:26:07.093Z,69.40
2018-03-16T01:28:34.073Z,69.50
2018-03-16T01:31:00.268Z,69.40
2018-03-16T01:33:26.469Z,69.60
2018-03-16T01:35:52.660Z,69.50
2018-03-16T01:38:18.894Z,69.60
2018-03-16T01:40:45.126Z,69.40
2018-03-16T01:43:11.321Z,69.40
2018-03-16T01:45:37.530Z,69.30
2018-03-16T01:48:04.522Z,69.40
2018-03-16T01:50:30.696Z,69.40
2018-03-16T01:53:09.902Z,69.10
2018-03-16T01:55:36.133Z,69.10
2018-03-16T01:58:02.362Z,68.90
2018-03-16T02:00:28.603Z,68.90
2018-03-16T02:02:54.794Z,68.40
2018-03-16T02:05:20.997Z,68.40
2018-03-16T02:07:47.233Z,68.10
2018-03-16T02:10:13.421Z,68.00
2018-03-16T02:12:40.352Z,67.50
2018-03-16T02:15:06.593Z,67.50
2018-03-16T02:17:33.534Z,67.80
2018-03-16T02:20:00.495Z,67.90
2018-03-16T02:22:26.820Z,67.90
2018-03-16T02:24:53.829Z,68.80
2018-03-16T02:27:20.014Z,68.80
2018-03-16T02:29:46.256Z,68.90
2018-03-16T02:32:12.458Z,68.90
2018-03-16T02:34:38.662Z,68.70
2018-03-16T02:37:05.671Z,68.30
2018-03-16T02:39:31.886Z,68.30
2018-03-16T02:41:58.115Z,67.90
2018-03-16T02:44:24.370Z,67.50
2018-03-16T02:46:50.590Z,67.40
2018-03-16T02:49:16.826Z,67.00
2018-03-16T02:51:43.057Z,66.90
2018-03-16T02:54:09.282Z,66.90
2018-03-16T02:56:35.516Z,67.00
2018-03-16T02:59:01.728Z,66.50
2018-03-16T03:01:27.909Z,66.50
2018-03-16T03:03:54.141Z,66.40
2018-03-16T03:06:20.337Z,66.30
2018-03-16T03:08:46.549Z,66.40
2018-03-16T03:11:12.881Z,66.40
2018-03-16T03:13:39.104Z,66.30
2018-03-16T03:16:05.314Z,66.20
2018-03-16T03:18:31.578Z,66.20
2018-03-16T03:20:58.525Z,66.70
2018-03-16T03:23:24.701Z,65.90
2018-03-16T03:25:50.892Z,66.00
2018-03-16T03:28:17.824Z,66.30
2018-03-16T03:30:44.107Z,66.30
2018-03-16T03:33:10.314Z,67.30
2018-03-16T03:35:36.467Z,66.60
2018-03-16T03:38:02.702Z,66.50
2018-03-16T03:40:29.996Z,66.60
2018-03-16T03:42:56.927Z,66.80
2018-03-16T03:45:23.153Z,66.80
2018-03-16T03:47:49.316Z,66.80
2018-03-16T03:50:15.501Z,66.60
2018-03-16T03:52:41.722Z,66.90
2018-03-16T03:55:07.909Z,66.90
2018-03-16T03:57:36.108Z,67.30
2018-03-16T04:00:02.354Z,67.30
2018-03-16T04:02:28.573Z,67.70
2018-03-16T04:04:54.792Z,68.10
2018-03-16T04:07:21.062Z,68.30
2018-03-16T04:09:48.008Z,70.10
2018-03-16T04:12:14.956Z,69.60
2018-03-16T04:14:41.929Z,69.80
2018-03-16T04:17:08.134Z,70.50
2018-03-16T04:19:35.120Z,69.40
2018-03-16T04:22:01.303Z,69.40
2018-03-16T04:24:28.261Z,69.40
2018-03-16T04:26:54.486Z,69.50
2018-03-16T04:29:20.701Z,69.60
2018-03-16T04:31:47.737Z,70.10
2018-03-16T04:34:13.936Z,70.80
2018-03-16T04:36:40.199Z,70.50
2018-03-16T04:39:07.168Z,70.50
2018-03-16T04:41:33.425Z,70.50
2018-03-16T04:43:59.657Z,70.70
2018-03-16T04:46:25.845Z,70.80
2018-03-16T04:48:52.801Z,71.10
2018-03-16T04:51:19.044Z,71.00
2018-03-16T04:53:45.240Z,71.50
2018-03-16T04:56:12.274Z,71.90
2018-03-16T04:58:38.506Z,71.70
2018-03-16T05:01:05.428Z,71.90
2018-03-16T05:03:31.612Z,71.90
2018-03-16T05:05:57.843Z,71.90
2018-03-16T05:08:24.068Z,72.50
2018-03-16T05:10:50.336Z,72.30
2018-03-16T05:13:16.668Z,73.40
2018-03-16T05:15:42.939Z,72.80
2018-03-16T05:18:09.170Z,72.90
2018-03-16T05:20:35.368Z,73.10
2018-03-16T05:23:01.551Z,73.10
2018-03-16T05:25:27.814Z,73.60
2018-03-16T05:27:53.984Z,73.30
2018-03-16T05:30:20.192Z,73.80
2018-03-16T05:32:46.416Z,74.00
2018-03-16T05:35:12.648Z,74.00
2018-03-16T05:37:39.738Z,75.10
2018-03-16T05:40:05.978Z,75.10
2018-03-16T05:42:32.236Z,75.40
2018-03-16T05:44:58.465Z,75.30
2018-03-16T05:47:24.713Z,75.50
2018-03-16T05:49:50.955Z,75.40
2018-03-16T05:52:17.147Z,75.40
2018-03-16T05:54:43.366Z,75.80
2018-03-16T05:57:09.600Z,76.70
2018-03-16T05:59:35.812Z,77.00
2018-03-16T06:02:02.061Z,76.70
2018-03-16T06:04:29.003Z,77.40
2018-03-16T06:06:55.223Z,77.30
2018-03-16T06:09:21.449Z,77.50
2018-03-16T06:11:47.640Z,78.40
2018-03-16T06:14:13.895Z,78.30
2018-03-16T06:16:40.122Z,78.40
2018-03-16T06:19:06.329Z,78.60
2018-03-16T06:21:32.585Z,78.60
2018-03-16T06:23:58.778Z,78.20
2018-03-16T06:26:25.017Z,77.60
2018-03-16T06:28:51.225Z,77.80
2018-03-16T06:31:17.460Z,78.40
2018-03-16T06:33:43.657Z,78.10
2018-03-16T06:36:09.883Z,77.90
2018-03-16T06:38:36.874Z,77.70
2018-03-16T06:41:03.136Z,77.60
2018-03-16T06:43:29.358Z,78.20
2018-03-16T06:45:55.544Z,78.30
2018-03-16T06:48:21.807Z,77.50
2018-03-16T06:50:48.011Z,77.80
2018-03-16T06:53:14.283Z,77.90
2018-03-16T06:55:40.520Z,77.60
2018-03-16T06:58:07.453Z,77.90
2018-03-16T07:00:33.722Z,77.80
2018-03-16T07:02:59.915Z,77.30
2018-03-16T07:05:26.124Z,77.70
2018-03-16T07:07:52.328Z,77.40
2018-03-16T07:10:18.494Z,77.50
2018-03-16T07:12:44.721Z,77.80
2018-03-16T07:15:23.900Z,77.60
2018-03-16T07:17:50.130Z,77.60
2018-03-16T07:20:16.373Z,77.80
2018-03-16T07:22:42.577Z,78.30
2018-03-16T07:25:08.844Z,78.70
2018-03-16T07:27:35.099Z,78.80
2018-03-16T07:30:02.117Z,78.00
2018-03-16T07:32:28.324Z,77.90
2018-03-16T07:34:54.493Z,78.00
2018-03-16T07:37:20.698Z,77.60
2018-03-16T07:39:50.025Z,78.00
2018-03-16T07:42:16.259Z,78.20
2018-03-16T07:44:42.513Z,79.20
2018-03-16T07:47:08.926Z,77.50
2018-03-16T07:49:35.925Z,77.60
2018-03-16T07:52:02.128Z,77.60
2018-03-16T07:54:28.313Z,76.30
2018-03-16T07:56:54.851Z,75.90
2018-03-16T07:59:21.841Z,76.10
2018-03-16T08:01:48.049Z,76.10
2018-03-16T08:04:14.993Z,76.60
2018-03-16T08:06:41.905Z,75.50
2018-03-16T08:09:08.104Z,75.50
2018-03-16T08:11:34.292Z,76.30
2018-03-16T08:14:01.220Z,76.50
2018-03-16T08:16:28.180Z,76.40
2018-03-16T08:18:55.118Z,75.30
2018-03-16T08:21:22.132Z,74.70
2018-03-16T08:23:48.332Z,74.70
2018-03-16T08:26:14.503Z,75.20
2018-03-16T08:28:40.737Z,75.10
2018-03-16T08:31:07.727Z,75.60
2018-03-16T08:33:33.941Z,75.60
2018-03-16T08:36:00.162Z,74.20
2018-03-16T08:38:26.369Z,74.90
2018-03-16T08:40:53.349Z,74.50
2018-03-16T08:43:19.494Z,74.40
2018-03-16T08:45:45.698Z,73.50
2018-03-16T08:48:11.913Z,74.30
2018-03-16T08:50:38.111Z,74.10
2018-03-16T08:53:04.284Z,74.20
2018-03-16T08:55:30.499Z,73.20
2018-03-16T08:57:56.739Z,73.30
2018-03-16T09:00:22.949Z,73.40
2018-03-16T09:02:49.165Z,72.70
2018-03-16T09:05:16.138Z,72.50
2018-03-16T09:07:42.356Z,72.30
2018-03-16T09:10:08.569Z,72.80
2018-03-16T09:12:35.553Z,73.70
2018-03-16T09:15:02.513Z,73.40
2018-03-16T09:17:28.761Z,73.40
2018-03-16T09:19:54.975Z,73.30
2018-03-16T09:22:21.176Z,73.20
2018-03-16T09:24:47.402Z,73.30
2018-03-16T09:27:13.610Z,73.80
2018-03-16T09:29:39.844Z,74.20
2018-03-16T09:32:06.098Z,74.20
2018-03-16T09:34:32.260Z,74.00
2018-03-16T09:36:58.433Z,74.00
2018-03-16T09:39:24.641Z,74.70
2018-03-16T09:41:51.596Z,75.70
2018-03-16T09:44:17.844Z,75.80
2018-03-16T09:46:44.037Z,74.70
2018-03-16T09:49:10.997Z,74.50
2018-03-16T09:51:37.180Z,74.50
2018-03-16T09:54:03.464Z,73.80
2018-03-16T09:56:29.636Z,74.10
2018-03-16T09:58:55.843Z,74.40
2018-03-16T10:01:22.062Z,75.10
2018-03-16T10:03:48.268Z,75.70
2018-03-16T10:06:14.506Z,75.60
2018-03-16T10:08:40.656Z,74.90
2018-03-16T10:11:06.880Z,73.70
2018-03-16T10:13:33.037Z,73.40
2018-03-16T10:15:59.246Z,73.00
2018-03-16T10:18:25.461Z,72.80
2018-03-16T10:20:51.625Z,71.40
2018-03-16T10:23:18.573Z,73.10
2018-03-16T10:25:44.787Z,73.10
2018-03-16T10:28:11.024Z,72.80
2018-03-16T10:30:37.233Z,73.40
2018-03-16T10:33:03.461Z,74.40
2018-03-16T10:35:29.666Z,73.30
2018-03-16T10:37:55.885Z,71.50
2018-03-16T10:40:22.071Z,71.60
2018-03-16T10:42:48.283Z,68.60
2018-03-16T10:45:14.475Z,70.10
2018-03-16T10:47:40.671Z,69.60
2018-03-16T10:50:06.864Z,70.50
2018-03-16T10:52:33.085Z,70.50
2018-03-16T10:54:59.253Z,69.90
2018-03-16T10:57:26.215Z,69.40
2018-03-16T10:59:52.423Z,69.30
2018-03-16T11:02:19.607Z,68.90
2018-03-16T11:04:45.880Z,69.00
2018-03-16T11:07:19.010Z,68.80
2018-03-16T11:09:45.248Z,68.40
2018-03-16T11:12:11.469Z,68.80
2018-03-16T11:14:38.523Z,69.60
2018-03-16T11:17:05.417Z,69.90
2018-03-16T11:19:31.664Z,69.70
2018-03-16T11:21:58.601Z,69.10
2018-03-16T11:24:24.850Z,69.00
2018-03-16T11:26:51.165Z,68.40
2018-03-16T11:29:17.407Z,68.40
2018-03-16T11:31:43.750Z,66.20
2018-03-16T11:34:09.958Z,66.20
2018-03-16T11:36:37.409Z,64.70
2018-03-16T11:39:05.078Z,64.70
2018-03-16T11:41:33.392Z,65.60
2018-03-16T11:44:01.110Z,65.50
2018-03-16T11:46:29.374Z,66.60
2018-03-16T11:48:56.990Z,66.60
2018-03-16T11:51:24.479Z,64.70
2018-03-16T11:53:51.607Z,63.10
2018-03-16T11:56:19.112Z,62.00
2018-03-16T11:58:47.361Z,63.80
2018-03-16T12:01:15.023Z,63.70
2018-03-16T12:03:42.512Z,62.70
2018-03-16T12:06:10.200Z,62.40
2018-03-16T12:08:37.643Z,63.20
2018-03-16T12:11:06.135Z,63.10
2018-03-16T12:13:33.377Z,63.10
2018-03-16T12:16:01.283Z,62.80
2018-03-16T12:18:28.371Z,62.80
2018-03-16T12:20:54.610Z,64.30
2018-03-16T12:23:20.784Z,62.60
2018-03-16T12:25:46.967Z,63.20
2018-03-16T12:28:13.237Z,63.00
2018-03-16T12:30:39.419Z,63.20
2018-03-16T12:33:05.646Z,61.50
2018-03-16T12:35:31.846Z,59.00
2018-03-16T12:37:58.109Z,59.70
2018-03-16T12:40:24.318Z,62.10
2018-03-16T12:42:51.308Z,61.80
2018-03-16T12:45:17.600Z,61.60
2018-03-16T12:47:44.582Z,60.10
2018-03-16T12:50:10.839Z,60.10
2018-03-16T12:52:37.065Z,60.80
2018-03-16T12:55:03.331Z,58.30
2018-03-16T12:57:30.251Z,55.30
2018-03-16T12:59:56.433Z,55.20
2018-03-16T13:02:22.635Z,54.50
2018-03-16T13:04:48.802Z,55.70
2018-03-16T13:07:15.027Z,55.50
2018-03-16T13:09:41.216Z,51.50
2018-03-16T13:12:07.463Z,53.50
2018-03-16T13:14:33.634Z,52.90
2018-03-16T13:16:59.842Z,55.90
2018-03-16T13:19:26.080Z,53.20
2018-03-16T13:21:52.300Z,52.90
2018-03-16T13:24:18.536Z,51.00
2018-03-16T13:26:44.714Z,53.40
2018-03-16T13:29:10.915Z,52.30
2018-03-16T13:31:37.886Z,53.10
2018-03-16T13:34:04.136Z,52.80
2018-03-16T13:36:30.353Z,53.00
2018-03-16T13:38:56.589Z,53.30
2018-03-16T13:41:23.539Z,51.70
2018-03-16T13:43:49.757Z,51.60
2018-03-16T13:46:16.070Z,52.80
2018-03-16T13:48:42.353Z,53.20
2018-03-16T13:51:08.564Z,54.90
2018-03-16T13:53:34.726Z,55.20
2018-03-16T13:56:00.924Z,54.90
2018-03-16T13:58:27.129Z,54.00
2018-03-16T14:00:53.368Z,53.50
2018-03-16T14:03:19.529Z,50.90
2018-03-16T14:05:45.747Z,51.20
2018-03-16T14:08:12.026Z,51.50
2018-03-16T14:10:38.225Z,53.00
2018-03-16T14:13:04.414Z,53.10
2018-03-16T14:15:30.586Z,53.40
2018-03-16T14:17:57.537Z,53.20
2018-03-16T14:20:24.452Z,51.30
2018-03-16T14:22:50.747Z,51.20
2018-03-16T14:25:16.907Z,52.20
2018-03-16T14:27:43.084Z,51.60
2018-03-16T14:30:09.336Z,51.30
2018-03-16T14:32:35.552Z,49.40
2018-03-16T14:35:01.729Z,50.10
2018-03-16T14:37:27.995Z,49.90
2018-03-16T14:39:54.279Z,49.50
2018-03-16T14:42:20.487Z,50.00
2018-03-16T14:44:46.689Z,49.60
2018-03-16T14:47:12.923Z,49.80
2018-03-16T14:49:39.200Z,50.00
2018-03-16T14:52:05.352Z,49.80
2018-03-16T14:54:33.080Z,48.90
2018-03-16T14:56:59.284Z,48.90
2018-03-16T14:59:25.494Z,48.10
2018-03-16T15:01:51.712Z,48.30
2018-03-16T15:04:18.006Z,47.50
2018-03-16T15:06:44.270Z,48.80
2018-03-16T15:09:10.491Z,49.60
2018-03-16T15:11:36.725Z,50.20
2018-03-16T15:14:03.036Z,50.40
2018-03-16T15:16:30.064Z,50.40
2018-03-16T15:18:57.091Z,48.40
2018-03-16T15:21:23.381Z,48.30
2018-03-16T15:23:50.378Z,48.20
2018-03-16T15:26:17.360Z,46.30
2018-03-16T15:28:43.565Z,46.10
2018-03-16T15:31:10.571Z,47.80
2018-03-16T15:33:36.753Z,47.60
2018-03-16T15:36:02.961Z,48.30
2018-03-16T15:38:29.946Z,49.20
2018-03-16T15:40:56.167Z,49.20
2018-03-16T15:43:22.356Z,50.10
2018-03-16T15:45:48.586Z,49.30
2018-03-16T15:48:14.818Z,51.10
2018-03-16T15:50:41.814Z,50.10
2018-03-16T15:53:08.043Z,50.00
2018-03-16T15:55:34.212Z,51.00
2018-03-16T15:58:00.412Z,51.80
2018-03-16T16:00:26.638Z,51.40
2018-03-16T16:02:52.833Z,50.20
2018-03-16T16:05:19.142Z,50.00
2018-03-16T16:07:46.056Z,50.60
2018-03-16T16:10:12.319Z,50.60
2018-03-16T16:12:39.284Z,50.70
2018-03-16T16:15:05.524Z,50.60
2018-03-16T16:17:31.747Z,50.20
2018-03-16T16:19:57.957Z,50.60
2018-03-16T16:22:24.923Z,50.20
2018-03-16T16:24:51.882Z,50.50
2018-03-16T16:27:18.096Z,50.50
2018-03-16T16:29:44.410Z,50.30
2018-03-16T16:32:10.660Z,50.00
2018-03-16T16:34:36.861Z,50.30
2018-03-16T16:37:03.109Z,50.40
2018-03-16T16:39:29.310Z,51.00
2018-03-16T16:41:56.318Z,51.30
2018-03-16T16:44:22.546Z,51.30
2018-03-16T16:46:48.825Z,50.90
2018-03-16T16:49:15.004Z,51.20
2018-03-16T16:51:41.243Z,50.40
2018-03-16T16:54:07.514Z,50.90
2018-03-16T16:56:33.735Z,50.90
2018-03-16T16:58:59.936Z,51.70
2018-03-16T17:01:26.180Z,51.30
2018-03-16T17:03:52.424Z,51.20
2018-03-16T17:06:18.608Z,51.70
2018-03-16T17:08:44.890Z,51.70
2018-03-16T17:11:11.101Z,52.40
2018-03-16T17:13:37.328Z,53.30
2018-03-16T17:16:04.314Z,53.00
2018-03-16T17:18:30.540Z,53.00
2018-03-16T17:20:56.798Z,53.70
2018-03-16T17:23:23.065Z,53.40
2018-03-16T17:25:49.244Z,53.10
2018-03-16T17:28:15.489Z,53.00
2018-03-16T17:30:41.745Z,52.60
2018-03-16T17:33:07.994Z,52.40
2018-03-16T17:35:34.254Z,52.60
2018-03-16T17:38:00.483Z,52.40
2018-03-16T17:40:26.700Z,52.70
2018-03-16T17:42:52.980Z,53.00
2018-03-16T17:45:19.310Z,53.60
2018-03-16T17:47:46.283Z,53.50
2018-03-16T17:50:12.569Z,53.50
2018-03-16T17:52:39.580Z,53.80
2018-03-16T17:55:05.810Z,53.70
2018-03-16T17:57:32.037Z,54.30
2018-03-16T17:59:58.310Z,54.80
2018-03-16T18:02:25.325Z,55.10
2018-03-16T18:04:51.550Z,55.70
2018-03-16T18:07:17.787Z,54.80
2018-03-16T18:09:43.993Z,55.10
2018-03-16T18:12:10.206Z,55.00
2018-03-16T18:14:36.483Z,55.20
2018-03-16T18:17:02.660Z,55.30
2018-03-16T18:19:28.882Z,55.80
2018-03-16T18:21:55.083Z,56.20
2018-03-16T18:24:22.061Z,56.40
2018-03-16T18:26:48.284Z,56.40
2018-03-16T18:29:14.493Z,56.40
2018-03-16T18:31:41.502Z,56.60
2018-03-16T18:34:07.773Z,56.50
2018-03-16T18:36:33.953Z,56.80
2018-03-16T18:39:00.163Z,56.90
2018-03-16T18:41:26.346Z,57.10
2018-03-16T18:43:53.265Z,57.70
2018-03-16T18:46:19.545Z,57.60
2018-03-16T18:48:45.802Z,57.90
2018-03-16T18:51:11.988Z,58.00
2018-03-16T18:53:38.292Z,58.20
2018-03-16T18:56:04.469Z,58.20
2018-03-16T18:58:30.707Z,58.50
2018-03-16T19:00:56.970Z,58.60
2018-03-16T19:03:23.158Z,58.80
2018-03-16T19:05:49.388Z,59.00
2018-03-16T19:08:15.632Z,59.00
2018-03-16T19:10:41.805Z,59.00
2018-03-16T19:13:08.699Z,59.00
2018-03-16T19:15:34.916Z,59.00
2018-03-16T19:18:01.157Z,59.20
2018-03-16T19:20:27.376Z,59.30
2018-03-16T19:22:53.577Z,59.40
2018-03-16T19:25:19.818Z,59.40
2018-03-16T19:27:46.018Z,59.20
2018-03-16T19:30:12.232Z,59.00
2018-03-16T19:32:39.194Z,59.40
2018-03-16T19:35:05.449Z,59.30
2018-03-16T19:37:31.690Z,59.80
2018-03-16T19:39:57.870Z,60.20
2018-03-16T19:42:24.804Z,60.10
2018-03-16T19:44:51.819Z,60.00
2018-03-16T19:47:18.077Z,59.90
2018-03-16T19:49:45.133Z,59.90
2018-03-16T19:52:12.132Z,59.80
2018-03-16T19:54:38.336Z,59.70
2018-03-16T19:57:04.593Z,60.00
2018-03-16T19:59:30.883Z,59.90
2018-03-16T20:01:57.159Z,60.00
2018-03-16T20:04:23.355Z,59.80
2018-03-16T20:06:49.595Z,60.40
2018-03-16T20:09:15.840Z,60.10
2018-03-16T20:11:42.062Z,60.50
2018-03-16T20:14:08.526Z,60.40
2018-03-16T20:16:34.715Z,60.70
2018-03-16T20:19:00.921Z,60.40
2018-03-16T20:21:27.139Z,60.00
2018-03-16T20:23:53.329Z,60.50
2018-03-16T20:26:19.590Z,60.10
2018-03-16T20:28:45.814Z,59.90
2018-03-16T20:31:12.129Z,60.30
2018-03-16T20:33:39.053Z,60.70
2018-03-16T20:36:05.410Z,60.60
2018-03-16T20:38:32.332Z,61.60
2018-03-16T20:40:58.518Z,61.60
2018-03-16T20:43:24.761Z,61.60
2018-03-16T20:45:51.005Z,61.60
2018-03-16T20:48:17.218Z,61.70
2018-03-16T20:50:43.458Z,61.90
2018-03-16T20:53:09.794Z,61.70
2018-03-16T20:55:35.966Z,62.10
2018-03-16T20:58:02.182Z,61.80
2018-03-16T21:00:28.443Z,61.80
2018-03-16T21:02:54.675Z,62.00
2018-03-16T21:05:20.880Z,62.10
2018-03-16T21:07:47.122Z,62.30
2018-03-16T21:10:13.460Z,62.70
2018-03-16T21:12:39.664Z,62.90
2018-03-16T21:15:06.012Z,62.70
2018-03-16T21:17:32.263Z,62.80
2018-03-16T21:19:58.460Z,62.90
2018-03-16T21:22:24.737Z,62.90
2018-03-16T21:24:50.940Z,63.00
2018-03-16T21:27:17.111Z,63.70
2018-03-16T21:29:44.246Z,63.30
2018-03-16T21:32:10.475Z,63.30
2018-03-16T21:34:36.663Z,63.40
2018-03-16T21:37:02.912Z,63.60
2018-03-16T21:39:29.143Z,63.70
2018-03-16T21:41:55.360Z,63.70
2018-03-16T21:44:21.583Z,64.40
2018-03-16T21:46:47.764Z,64.80
2018-03-16T21:49:14.853Z,64.90
2018-03-16T21:51:41.169Z,64.90
2018-03-16T21:54:07.366Z,64.10
2018-03-16T21:56:33.580Z,63.80
2018-03-16T21:58:59.837Z,64.20
2018-03-16T22:01:26.232Z,64.10
2018-03-16T22:03:52.413Z,63.60
2018-03-16T22:06:18.645Z,63.90
2018-03-16T22:08:44.856Z,63.50
2018-03-16T22:11:12.864Z,63.70
2018-03-16T22:13:39.114Z,64.30
2018-03-16T22:16:05.600Z,64.80
2018-03-16T22:18:31.845Z,65.20
2018-03-16T22:20:58.025Z,64.80
2018-03-16T22:23:25.131Z,64.40
2018-03-16T22:25:51.399Z,64.30
2018-03-16T22:28:17.685Z,64.10
2018-03-16T22:30:43.896Z,63.80
2018-03-16T22:33:10.112Z,63.80
2018-03-16T22:35:36.339Z,63.30
2018-03-16T22:38:02.570Z,64.40
2018-03-16T22:40:28.752Z,65.00
2018-03-16T22:42:55.002Z,65.50
2018-03-16T22:45:21.229Z,66.40
2018-03-16T22:47:48.214Z,66.70
2018-03-16T22:50:14.387Z,66.70
2018-03-16T22:52:40.608Z,66.30
2018-03-16T22:55:07.893Z,66.00
2018-03-16T22:57:34.144Z,65.90
2018-03-16T23:00:00.368Z,66.20
2018-03-16T23:02:26.570Z,65.80
2018-03-16T23:04:52.788Z,65.70
2018-03-16T23:07:19.025Z,65.80
2018-03-16T23:09:45.989Z,66.00
2018-03-16T23:12:12.198Z,65.80
2018-03-16T23:14:39.126Z,65.60
2018-03-16T23:17:06.065Z,65.70
2018-03-16T23:19:32.285Z,65.70
2018-03-16T23:21:58.516Z,66.00
2018-03-16T23:24:24.784Z,66.40
2018-03-16T23:26:51.020Z,65.90
2018-03-16T23:29:17.207Z,65.90
2018-03-16T23:31:44.192Z,65.80
2018-03-16T23:34:10.400Z,65.60
2018-03-16T23:36:36.735Z,65.30
2018-03-16T23:39:02.944Z,66.10
2018-03-16T23:41:29.162Z,65.50
2018-03-16T23:43:55.413Z,65.40
2018-03-16T23:46:21.629Z,65.30
2018-03-16T23:48:48.601Z,65.50
2018-03-16T23:51:14.834Z,65.40
2018-03-16T23:53:41.089Z,65.50
2018-03-16T23:56:07.307Z,65.40
2018-03-16T23:58:33.511Z,65.30
